createdAt,value
2022-11-07T00:01:37.206Z,9.69
2022-11-07T00:04:13.632Z,9.71
2022-11-07T00:06:40.829Z,9.74
2022-11-07T00:09:07.900Z,9.80
2022-11-07T00:11:35.071Z,9.82
2022-11-07T00:14:02.091Z,9.81
2022-11-07T00:16:29.381Z,9.80
2022-11-07T00:18:56.634Z,9.84
2022-11-07T00:21:23.980Z,9.73
2022-11-07T00:23:51.082Z,9.80
2022-11-07T00:26:18.282Z,9.72
2022-11-07T00:28:46.185Z,9.72
2022-11-07T00:31:14.928Z,9.77
2022-11-07T00:33:43.032Z,9.74
2022-11-07T00:36:17.520Z,9.72
2022-11-07T00:38:44.958Z,9.72
2022-11-07T00:41:12.331Z,9.67
2022-11-07T00:43:39.402Z,9.70
2022-11-07T00:46:08.631Z,9.74
2022-11-07T00:48:36.831Z,9.73
2022-11-07T00:51:14.773Z,9.80
2022-11-07T00:53:42.616Z,9.61
2022-11-07T00:56:12.294Z,9.66
2022-11-07T00:58:39.919Z,9.64
2022-11-07T01:01:09.141Z,9.63
2022-11-07T01:03:55.531Z,9.68
2022-11-07T01:06:23.281Z,9.68
2022-11-07T01:08:51.641Z,9.66
2022-11-07T01:11:18.639Z,9.69
2022-11-07T01:13:46.054Z,9.69
2022-11-07T01:16:13.232Z,9.63
2022-11-07T01:18:40.309Z,9.63
2022-11-07T01:21:15.151Z,9.70
2022-11-07T01:23:43.637Z,9.69
2022-11-07T01:26:12.087Z,9.71
2022-11-07T01:28:39.382Z,9.68
2022-11-07T01:31:09.093Z,9.69
2022-11-07T01:33:37.652Z,9.66
2022-11-07T01:36:08.794Z,9.63
2022-11-07T01:38:39.317Z,9.65
2022-11-07T01:41:25.475Z,9.66
2022-11-07T01:44:03.269Z,9.67
2022-11-07T01:46:40.127Z,9.67
2022-11-07T01:49:12.812Z,9.65
2022-11-07T01:51:48.915Z,9.66
2022-11-07T01:54:22.922Z,9.68
2022-11-07T01:56:52.589Z,9.62
2022-11-07T01:59:23.502Z,9.65
2022-11-07T02:01:50.650Z,9.69
2022-11-07T02:04:21.118Z,9.65
2022-11-07T02:07:00.815Z,9.66
2022-11-07T02:09:28.321Z,9.63
2022-11-07T02:12:00.894Z,9.57
2022-11-07T02:14:29.345Z,9.62
2022-11-07T02:16:57.085Z,9.60
2022-11-07T02:19:40.518Z,9.63
2022-11-07T02:22:37.984Z,9.61
2022-11-07T02:25:09.435Z,9.59
2022-11-07T02:27:37.399Z,9.54
2022-11-07T02:30:09.578Z,9.52
2022-11-07T02:32:36.616Z,9.55
2022-11-07T02:35:42.990Z,9.57
2022-11-07T02:38:26.274Z,9.49
2022-11-07T02:41:00.696Z,9.54
2022-11-07T02:43:29.927Z,9.44
2022-11-07T02:46:00.362Z,9.44
2022-11-07T02:48:31.374Z,9.45
2022-11-07T02:50:58.765Z,9.44
2022-11-07T02:53:25.760Z,9.44
2022-11-07T02:55:52.827Z,9.44
2022-11-07T02:58:19.804Z,9.43
2022-11-07T03:00:46.856Z,9.48
2022-11-07T03:03:14.442Z,9.45
2022-11-07T03:05:41.748Z,9.47
2022-11-07T03:08:08.733Z,9.45
2022-11-07T03:10:35.734Z,9.45
2022-11-07T03:13:02.817Z,9.47
2022-11-07T03:15:29.848Z,9.54
2022-11-07T03:17:59.506Z,9.52
2022-11-07T03:20:26.802Z,9.49
2022-11-07T03:22:53.782Z,9.52
2022-11-07T03:25:21.961Z,9.49
2022-11-07T03:27:49.863Z,9.45
2022-11-07T03:30:17.506Z,9.42
2022-11-07T03:32:44.812Z,9.41
2022-11-07T03:35:12.164Z,9.39
2022-11-07T03:37:39.171Z,9.49
2022-11-07T03:40:06.972Z,9.46
2022-11-07T03:42:39.014Z,9.46
2022-11-07T03:45:06.785Z,9.49
2022-11-07T03:47:38.004Z,9.45
2022-11-07T03:50:06.646Z,9.47
2022-11-07T03:52:33.895Z,9.46
2022-11-07T03:55:01.058Z,9.50
2022-11-07T03:57:28.050Z,9.45
2022-11-07T03:59:55.067Z,9.44
2022-11-07T04:02:23.365Z,9.45
2022-11-07T04:04:50.519Z,9.45
2022-11-07T04:07:17.527Z,9.43
2022-11-07T04:09:44.527Z,9.34
2022-11-07T04:12:31.802Z,9.39
2022-11-07T04:15:17.125Z,9.36
2022-11-07T04:17:44.133Z,9.36
2022-11-07T04:20:11.259Z,9.38
2022-11-07T04:22:38.347Z,9.40
2022-11-07T04:25:05.929Z,9.40
2022-11-07T04:27:45.224Z,9.34
2022-11-07T04:30:26.117Z,9.39
2022-11-07T04:32:55.443Z,9.37
2022-11-07T04:35:24.914Z,9.42
2022-11-07T04:37:52.171Z,9.43
2022-11-07T04:40:19.833Z,9.43
2022-11-07T04:42:47.879Z,9.44
2022-11-07T04:45:15.949Z,9.38
2022-11-07T04:47:43.620Z,9.49
2022-11-07T04:50:14.479Z,9.52
2022-11-07T04:52:42.162Z,9.55
2022-11-07T04:55:16.255Z,9.59
2022-11-07T04:57:43.275Z,9.61
2022-11-07T05:00:10.692Z,9.60
2022-11-07T05:02:37.749Z,9.60
2022-11-07T05:05:05.291Z,9.63
2022-11-07T05:07:32.301Z,9.64
2022-11-07T05:09:59.310Z,9.70
2022-11-07T05:12:26.306Z,9.70
2022-11-07T05:14:53.315Z,9.72
2022-11-07T05:17:23.338Z,9.71
2022-11-07T05:19:53.942Z,9.64
2022-11-07T05:22:39.721Z,9.73
2022-11-07T05:25:07.288Z,9.73
2022-11-07T05:27:34.810Z,9.74
2022-11-07T05:30:01.869Z,9.72
2022-11-07T05:32:28.908Z,9.74
2022-11-07T05:34:55.888Z,9.80
2022-11-07T05:37:22.909Z,9.82
2022-11-07T05:39:54.703Z,9.82
2022-11-07T05:42:22.255Z,9.81
2022-11-07T05:44:49.273Z,9.86
2022-11-07T05:47:16.303Z,9.89
2022-11-07T05:49:43.320Z,9.90
2022-11-07T05:52:10.330Z,9.93
2022-11-07T05:54:37.340Z,9.86
2022-11-07T05:57:04.803Z,9.96
2022-11-07T05:59:31.890Z,9.95
2022-11-07T06:01:59.012Z,10.02
2022-11-07T06:04:26.061Z,10.07
2022-11-07T06:06:53.061Z,10.12
2022-11-07T06:09:20.307Z,10.15
2022-11-07T06:11:47.715Z,10.17
2022-11-07T06:14:14.743Z,10.19
2022-11-07T06:16:41.748Z,10.26
2022-11-07T06:19:08.950Z,10.25
2022-11-07T06:21:36.137Z,10.27
2022-11-07T06:24:03.554Z,10.25
2022-11-07T06:26:30.648Z,10.21
2022-11-07T06:28:57.635Z,10.29
2022-11-07T06:31:24.668Z,10.27
2022-11-07T06:33:51.655Z,10.25
2022-11-07T06:36:18.920Z,10.25
2022-11-07T06:38:46.249Z,10.24
2022-11-07T06:41:14.420Z,10.31
2022-11-07T06:43:41.742Z,10.35
2022-11-07T06:46:12.239Z,10.34
2022-11-07T06:48:39.768Z,10.36
2022-11-07T06:51:09.698Z,10.33
2022-11-07T06:53:37.328Z,10.37
2022-11-07T06:56:07.196Z,10.45
2022-11-07T06:58:34.858Z,10.44
2022-11-07T07:01:03.895Z,10.43
2022-11-07T07:03:30.962Z,10.45
2022-11-07T07:06:02.766Z,10.48
2022-11-07T07:08:30.679Z,10.45
2022-11-07T07:11:03.854Z,10.45
2022-11-07T07:13:31.199Z,10.43
2022-11-07T07:15:59.153Z,10.47
2022-11-07T07:18:27.530Z,10.56
2022-11-07T07:21:06.489Z,10.54
2022-11-07T07:23:34.853Z,10.55
2022-11-07T07:26:02.883Z,10.53
2022-11-07T07:28:30.160Z,10.52
2022-11-07T07:31:29.182Z,10.60
2022-11-07T07:33:56.914Z,10.59
2022-11-07T07:36:24.938Z,10.65
2022-11-07T07:38:52.115Z,10.63
2022-11-07T07:41:19.737Z,10.67
2022-11-07T07:43:47.280Z,10.71
2022-11-07T07:46:19.304Z,10.71
2022-11-07T07:48:46.318Z,10.86
2022-11-07T07:51:13.521Z,10.85
2022-11-07T07:53:40.607Z,10.83
2022-11-07T07:56:07.902Z,10.92
2022-11-07T07:58:35.059Z,10.85
2022-11-07T08:01:03.948Z,10.91
2022-11-07T08:03:50.765Z,10.97
2022-11-07T08:06:17.903Z,10.95
2022-11-07T08:08:44.923Z,11.00
2022-11-07T08:11:11.943Z,11.05
2022-11-07T08:13:38.951Z,11.06
2022-11-07T08:16:07.726Z,11.14
2022-11-07T08:18:40.795Z,11.17
2022-11-07T08:21:08.522Z,11.16
2022-11-07T08:23:36.111Z,11.18
2022-11-07T08:26:04.865Z,11.22
2022-11-07T08:28:33.900Z,11.31
2022-11-07T08:31:05.677Z,11.33
2022-11-07T08:33:34.013Z,11.42
2022-11-07T08:36:02.512Z,11.53
2022-11-07T08:38:31.008Z,11.60
2022-11-07T08:40:58.902Z,11.58
2022-11-07T08:43:26.668Z,11.44
2022-11-07T08:45:54.843Z,11.46
2022-11-07T08:48:22.595Z,11.48
2022-11-07T08:50:57.341Z,11.52
2022-11-07T08:53:26.073Z,11.53
2022-11-07T08:56:00.130Z,11.56
2022-11-07T08:58:30.023Z,11.60
2022-11-07T09:00:57.924Z,11.53
2022-11-07T09:06:12.799Z,11.64
2022-11-07T09:08:40.757Z,11.66
2022-11-07T09:11:08.564Z,11.66
2022-11-07T09:13:35.652Z,11.63
2022-11-07T09:16:05.127Z,11.70
2022-11-07T09:18:32.762Z,11.72
2022-11-07T09:21:00.147Z,11.80
2022-11-07T09:23:27.693Z,11.79
2022-11-07T09:25:58.085Z,11.83
2022-11-07T09:28:25.316Z,11.85
2022-11-07T09:30:56.676Z,11.86
2022-11-07T09:33:24.714Z,11.86
2022-11-07T09:35:52.100Z,11.86
2022-11-07T09:38:19.251Z,11.89
2022-11-07T09:41:05.944Z,11.88
2022-11-07T09:43:40.771Z,11.92
2022-11-07T09:46:22.966Z,11.85
2022-11-07T09:48:59.325Z,11.96
2022-11-07T09:51:44.982Z,11.97
2022-11-07T09:54:22.497Z,11.99
2022-11-07T09:56:49.745Z,11.99
2022-11-07T09:59:38.066Z,11.99
2022-11-07T10:02:17.281Z,12.00
2022-11-07T10:04:45.888Z,12.00
2022-11-07T10:07:34.360Z,11.97
2022-11-07T10:10:23.771Z,11.99
2022-11-07T10:13:15.617Z,11.98
2022-11-07T10:16:24.454Z,12.00
2022-11-07T10:19:04.029Z,12.04
2022-11-07T10:22:04.963Z,12.01
2022-11-07T10:24:41.612Z,12.00
2022-11-07T10:27:11.969Z,12.01
2022-11-07T10:29:47.991Z,12.07
2022-11-07T10:32:21.114Z,12.12
2022-11-07T10:35:18.194Z,12.16
2022-11-07T10:37:57.811Z,12.14
2022-11-07T10:40:35.444Z,12.14
2022-11-07T10:43:08.900Z,12.16
2022-11-07T10:45:37.948Z,12.15
2022-11-07T10:48:05.747Z,12.13
2022-11-07T10:50:32.866Z,12.14
2022-11-07T10:53:03.301Z,12.07
2022-11-07T10:55:42.477Z,12.09
2022-11-07T10:58:21.848Z,12.13
2022-11-07T11:01:08.123Z,12.19
2022-11-07T11:03:45.581Z,12.24
2022-11-07T11:06:18.745Z,12.31
2022-11-07T11:08:48.522Z,12.30
2022-11-07T11:11:21.291Z,12.35
2022-11-07T11:13:48.923Z,12.40
2022-11-07T11:16:27.542Z,12.47
2022-11-07T11:18:57.636Z,12.51
2022-11-07T11:21:25.564Z,12.56
2022-11-07T11:23:54.254Z,12.65
2022-11-07T11:26:28.814Z,12.65
2022-11-07T11:29:06.838Z,12.59
2022-11-07T11:31:43.150Z,12.49
2022-11-07T11:34:14.993Z,12.60
2022-11-07T11:36:47.496Z,12.55
2022-11-07T11:39:31.670Z,12.59
2022-11-07T11:42:00.316Z,12.65
2022-11-07T11:44:38.121Z,12.67
2022-11-07T11:47:20.204Z,12.67
2022-11-07T11:50:10.519Z,12.65
2022-11-07T11:52:37.576Z,12.70
2022-11-07T11:55:13.548Z,12.71
2022-11-07T11:58:02.078Z,12.72
2022-11-07T12:00:35.592Z,12.76
2022-11-07T12:04:03.745Z,12.72
2022-11-07T12:06:42.447Z,12.76
2022-11-07T12:09:24.070Z,12.72
2022-11-07T12:12:19.789Z,12.73
2022-11-07T12:15:07.871Z,12.79
2022-11-07T12:17:56.203Z,12.82
2022-11-07T12:20:37.661Z,12.82
2022-11-07T12:23:20.972Z,12.80
2022-11-07T12:26:01.574Z,12.77
2022-11-07T12:28:52.844Z,12.76
2022-11-07T12:31:54.253Z,12.74
2022-11-07T12:34:35.749Z,12.75
2022-11-07T12:37:28.051Z,12.70
2022-11-07T12:40:10.215Z,12.74
2022-11-07T12:43:05.504Z,12.75
2022-11-07T12:45:51.061Z,12.79
2022-11-07T12:48:33.664Z,12.82
2022-11-07T12:51:30.970Z,12.85
2022-11-07T12:54:16.325Z,12.87
2022-11-07T12:56:46.939Z,12.96
2022-11-07T12:59:26.915Z,13.07
2022-11-07T13:02:26.969Z,13.09
2022-11-07T13:05:05.311Z,13.09
2022-11-07T13:07:41.931Z,13.08
2022-11-07T13:10:19.308Z,13.11
2022-11-07T13:13:05.721Z,13.14
2022-11-07T13:15:53.690Z,13.11
2022-11-07T13:18:25.472Z,13.13
2022-11-07T13:21:05.241Z,13.18
2022-11-07T13:23:33.062Z,13.20
2022-11-07T13:26:10.754Z,13.18
2022-11-07T13:28:58.696Z,13.18
2022-11-07T13:31:32.638Z,13.12
2022-11-07T13:34:18.588Z,12.97
2022-11-07T13:36:47.801Z,12.83
2022-11-07T13:39:15.554Z,12.76
2022-11-07T13:41:46.741Z,12.67
2022-11-07T13:44:22.299Z,12.62
2022-11-07T13:46:53.628Z,12.62
2022-11-07T13:49:25.508Z,12.57
2022-11-07T13:51:56.520Z,12.60
2022-11-07T13:54:28.637Z,12.62
2022-11-07T13:57:22.342Z,12.63
2022-11-07T13:59:58.072Z,12.66
2022-11-07T14:02:28.989Z,12.72
2022-11-07T14:05:15.732Z,12.72
2022-11-07T14:07:54.166Z,12.75
2022-11-07T14:10:31.711Z,12.74
2022-11-07T14:13:12.910Z,12.76
2022-11-07T14:15:46.866Z,12.82
2022-11-07T14:18:16.393Z,12.86
2022-11-07T14:20:53.435Z,12.89
2022-11-07T14:23:27.683Z,12.91
2022-11-07T14:26:15.286Z,12.94
2022-11-07T14:28:42.285Z,12.99
2022-11-07T14:31:25.139Z,12.99
2022-11-07T14:33:55.947Z,13.04
2022-11-07T14:36:23.862Z,13.04
2022-11-07T14:38:54.474Z,13.09
2022-11-07T14:41:22.759Z,13.05
2022-11-07T14:43:50.960Z,13.09
2022-11-07T14:46:24.450Z,13.09
2022-11-07T14:48:53.317Z,13.04
2022-11-07T14:51:28.935Z,13.03
2022-11-07T14:54:04.138Z,12.98
2022-11-07T14:56:39.085Z,12.97
2022-11-07T14:59:12.385Z,12.90
2022-11-07T15:01:52.546Z,12.82
2022-11-07T15:04:35.880Z,12.81
2022-11-07T15:07:30.340Z,12.82
2022-11-07T15:10:11.541Z,12.79
2022-11-07T15:12:50.187Z,12.73
2022-11-07T15:15:20.051Z,12.73
2022-11-07T15:17:52.699Z,12.69
2022-11-07T15:20:31.194Z,12.65
2022-11-07T15:23:24.034Z,12.63
2022-11-07T15:26:07.574Z,12.57
2022-11-07T15:28:52.668Z,12.54
2022-11-07T15:31:28.605Z,12.51
2022-11-07T15:33:57.985Z,12.44
2022-11-07T15:36:25.486Z,12.45
2022-11-07T15:38:54.126Z,12.38
2022-11-07T15:41:21.251Z,12.40
2022-11-07T15:43:48.456Z,12.37
2022-11-07T15:46:33.211Z,12.30
2022-11-07T15:49:00.287Z,12.20
2022-11-07T15:51:27.293Z,12.23
2022-11-07T15:53:54.523Z,12.25
2022-11-07T15:56:23.974Z,12.23
2022-11-07T15:58:53.669Z,12.21
2022-11-07T16:01:21.941Z,12.18
2022-11-07T16:03:49.037Z,12.17
2022-11-07T16:06:23.648Z,12.15
2022-11-07T16:08:50.654Z,12.13
2022-11-07T16:11:17.692Z,12.11
2022-11-07T16:13:44.893Z,12.10
2022-11-07T16:16:20.192Z,12.07
2022-11-07T16:18:50.233Z,12.05
2022-11-07T16:21:18.182Z,12.08
2022-11-07T16:23:47.981Z,12.08
2022-11-07T16:26:17.091Z,12.09
2022-11-07T16:28:45.416Z,12.03
2022-11-07T16:31:12.442Z,12.06
2022-11-07T16:33:39.483Z,12.08
2022-11-07T16:36:25.182Z,12.06
2022-11-07T16:38:52.704Z,12.03
2022-11-07T16:41:19.692Z,12.08
2022-11-07T16:43:47.077Z,12.04
2022-11-07T16:46:19.134Z,12.01
2022-11-07T16:48:48.064Z,12.07
2022-11-07T16:51:20.058Z,12.06
2022-11-07T16:53:47.532Z,12.10
2022-11-07T16:56:23.540Z,12.10
2022-11-07T16:58:51.057Z,12.11
2022-11-07T17:01:18.606Z,12.09
2022-11-07T17:03:45.785Z,12.05
2022-11-07T17:06:34.704Z,12.11
2022-11-07T17:09:12.149Z,12.11
2022-11-07T17:11:40.482Z,12.12
2022-11-07T17:14:07.548Z,12.05
2022-11-07T17:16:36.662Z,12.09
2022-11-07T17:19:05.449Z,12.16
2022-11-07T17:21:37.019Z,12.13
2022-11-07T17:24:05.394Z,12.18
2022-11-07T17:26:36.924Z,12.20
2022-11-07T17:29:05.507Z,12.21
2022-11-07T17:31:32.850Z,12.23
2022-11-07T17:33:59.875Z,12.26
2022-11-07T17:36:36.240Z,12.28
2022-11-07T17:39:11.256Z,12.32
2022-11-07T17:41:40.536Z,12.28
2022-11-07T17:44:07.692Z,12.31
2022-11-07T17:46:36.543Z,12.27
2022-11-07T17:49:09.372Z,12.27
2022-11-07T17:51:36.455Z,12.28
2022-11-07T17:54:04.488Z,12.27
2022-11-07T17:56:32.757Z,12.31
2022-11-07T17:59:05.787Z,12.31
2022-11-07T18:01:36.009Z,12.39
2022-11-07T18:04:04.657Z,12.43
2022-11-07T18:06:35.654Z,12.39
2022-11-07T18:09:04.607Z,12.44
2022-11-07T18:11:32.063Z,12.46
2022-11-07T18:13:59.875Z,12.48
2022-11-07T18:16:32.683Z,12.49
2022-11-07T18:19:01.141Z,12.49
2022-11-07T18:21:29.032Z,12.54
2022-11-07T18:23:56.917Z,12.53
2022-11-07T18:26:30.527Z,12.54
2022-11-07T18:29:09.550Z,12.58
2022-11-07T18:31:37.566Z,12.57
2022-11-07T18:34:06.751Z,12.55
2022-11-07T18:36:36.870Z,12.60
2022-11-07T18:39:16.368Z,12.57
2022-11-07T18:41:44.201Z,12.59
2022-11-07T18:44:12.369Z,12.55
2022-11-07T18:46:40.990Z,12.53
2022-11-07T18:49:08.455Z,12.51
2022-11-07T18:51:35.773Z,12.54
2022-11-07T18:54:04.411Z,12.56
2022-11-07T18:56:31.608Z,12.54
2022-11-07T18:58:59.194Z,12.55
2022-11-07T19:01:29.349Z,12.51
2022-11-07T19:03:57.984Z,12.43
2022-11-07T19:06:26.912Z,12.42
2022-11-07T19:08:54.042Z,12.32
2022-11-07T19:11:34.170Z,12.29
2022-11-07T19:14:02.802Z,12.24
2022-11-07T19:16:30.071Z,12.16
2022-11-07T19:18:59.234Z,12.12
2022-11-07T19:21:26.565Z,12.16
2022-11-07T19:23:53.561Z,12.14
2022-11-07T19:26:21.036Z,12.14
2022-11-07T19:28:48.115Z,12.13
2022-11-07T19:31:15.477Z,12.14
2022-11-07T19:33:43.787Z,12.11
2022-11-07T19:36:16.475Z,12.08
2022-11-07T19:38:44.647Z,12.09
2022-11-07T19:41:13.395Z,12.09
2022-11-07T19:43:42.403Z,12.00
2022-11-07T19:46:14.452Z,12.05
2022-11-07T19:48:41.604Z,12.09
2022-11-07T19:51:18.303Z,12.04
2022-11-07T19:53:55.589Z,12.07
2022-11-07T19:56:24.297Z,12.03
2022-11-07T19:58:51.428Z,12.03
2022-11-07T20:01:21.502Z,12.09
2022-11-07T20:03:51.318Z,12.06
2022-11-07T20:06:22.813Z,12.08
2022-11-07T20:08:50.412Z,12.01
2022-11-07T20:11:20.926Z,12.08
2022-11-07T20:13:48.170Z,12.06
2022-11-07T20:16:15.848Z,12.03
2022-11-07T20:18:43.379Z,12.00
2022-11-07T20:21:14.111Z,11.96
2022-11-07T20:23:43.128Z,11.95
2022-11-07T20:26:18.969Z,12.01
2022-11-07T20:28:47.440Z,12.04
2022-11-07T20:31:45.204Z,12.09
2022-11-07T20:34:15.245Z,12.08
2022-11-07T20:36:42.641Z,12.12
2022-11-07T20:39:12.503Z,12.14
2022-11-07T20:41:42.383Z,12.18
2022-11-07T20:44:14.384Z,12.19
2022-11-07T20:46:44.352Z,12.19
2022-11-07T20:49:13.467Z,12.22
2022-11-07T20:51:41.147Z,12.25
2022-11-07T20:54:13.114Z,12.25
2022-11-07T20:56:41.872Z,12.26
2022-11-07T20:59:09.746Z,12.21
2022-11-07T21:01:37.675Z,12.30
2022-11-07T21:04:14.575Z,12.32
2022-11-07T21:06:42.031Z,12.30
2022-11-07T21:09:09.578Z,12.34
2022-11-07T21:11:36.657Z,12.34
2022-11-07T21:14:04.678Z,12.34
2022-11-07T21:16:34.742Z,12.34
2022-11-07T21:19:04.809Z,12.40
2022-11-07T21:21:33.479Z,12.42
2022-11-07T21:24:01.142Z,12.43
2022-11-07T21:26:33.291Z,12.44
2022-11-07T21:29:01.486Z,12.43
2022-11-07T21:31:30.764Z,12.41
2022-11-07T21:33:57.810Z,12.35
2022-11-07T21:36:30.471Z,12.39
2022-11-07T21:39:02.172Z,12.32
2022-11-07T21:41:30.673Z,12.41
2022-11-07T21:43:58.045Z,12.39
2022-11-07T21:46:30.776Z,12.39
2022-11-07T21:48:59.061Z,12.38
2022-11-07T21:51:31.646Z,12.29
2022-11-07T21:54:00.081Z,12.36
2022-11-07T21:56:32.815Z,12.32
2022-11-07T21:59:02.299Z,12.33
2022-11-07T22:01:35.297Z,12.29
2022-11-07T22:04:09.474Z,12.26
2022-11-07T22:06:39.478Z,12.29
2022-11-07T22:09:08.938Z,12.29
2022-11-07T22:11:36.706Z,12.28
2022-11-07T22:14:04.653Z,12.29
2022-11-07T22:16:31.945Z,12.32
2022-11-07T22:19:00.134Z,12.33
2022-11-07T22:21:28.091Z,12.35
2022-11-07T22:23:56.244Z,12.34
2022-11-07T22:26:25.710Z,12.33
2022-11-07T22:28:54.029Z,12.33
2022-11-07T22:31:26.632Z,12.33
2022-11-07T22:33:54.625Z,12.29
2022-11-07T22:36:22.480Z,12.32
2022-11-07T22:38:50.197Z,12.31
2022-11-07T22:41:20.084Z,12.32
2022-11-07T22:43:47.518Z,12.33
2022-11-07T22:46:20.433Z,12.34
2022-11-07T22:48:48.751Z,12.33
2022-11-07T22:51:19.788Z,12.31
2022-11-07T22:53:47.175Z,12.29
2022-11-07T22:56:17.438Z,12.30
2022-11-07T22:58:46.198Z,12.25
2022-11-07T23:01:18.871Z,12.27
2022-11-07T23:03:47.254Z,12.29
2022-11-07T23:06:15.137Z,12.25
2022-11-07T23:08:42.458Z,12.29
2022-11-07T23:14:06.170Z,12.27
2022-11-07T23:16:38.956Z,12.19
2022-11-07T23:19:13.532Z,12.24
2022-11-07T23:21:41.093Z,12.17
2022-11-07T23:24:08.596Z,12.20
2022-11-07T23:26:35.926Z,12.18
2022-11-07T23:29:14.781Z,12.17
2022-11-07T23:31:45.311Z,12.07
2022-11-07T23:34:13.169Z,12.07
2022-11-07T23:36:43.678Z,11.95
2022-11-07T23:39:16.626Z,11.95
2022-11-07T23:41:44.610Z,11.88
2022-11-07T23:44:12.758Z,11.84
2022-11-07T23:46:59.034Z,11.79
2022-11-07T23:49:58.703Z,11.66
2022-11-07T23:52:25.837Z,11.66
2022-11-07T23:55:11.401Z,11.60
2022-11-07T23:57:57.256Z,11.58
